createdAt,value
2023-01-22T00:02:40.440Z,11.35
2023-01-22T00:07:45.820Z,11.13
2023-01-22T00:12:51.302Z,12.23
2023-01-22T00:17:59.153Z,11.85
2023-01-22T00:23:04.462Z,10.43
2023-01-22T00:28:10.028Z,10.65
2023-01-22T00:33:17.842Z,10.98
2023-01-22T00:38:23.108Z,11.70
2023-01-22T00:43:28.333Z,12.27
2023-01-22T00:48:37.372Z,12.07
2023-01-22T00:53:43.821Z,10.90
2023-01-22T00:58:49.149Z,11.40
2023-01-22T01:03:57.127Z,10.57
2023-01-22T01:09:02.453Z,10.80
2023-01-22T01:14:07.995Z,12.13
2023-01-22T01:19:17.430Z,10.70
2023-01-22T01:24:22.690Z,10.63
2023-01-22T01:29:27.912Z,10.07
2023-01-22T01:34:35.828Z,11.88
2023-01-22T01:39:41.970Z,11.90
2023-01-22T01:44:47.484Z,11.05
2023-01-22T01:49:56.728Z,11.10
2023-01-22T01:55:02.325Z,11.55
2023-01-22T02:00:13.017Z,10.05
2023-01-22T02:05:25.165Z,11.37
2023-01-22T02:10:30.597Z,11.25
2023-01-22T02:15:36.498Z,11.20
2023-01-22T02:20:54.957Z,10.75
2023-01-22T02:26:00.951Z,10.73
2023-01-22T02:31:06.361Z,11.07
2023-01-22T02:36:16.315Z,10.80
2023-01-22T02:41:21.765Z,10.18
2023-01-22T02:46:28.087Z,10.43
2023-01-22T02:51:36.228Z,10.90
2023-01-22T02:56:41.630Z,11.10
2023-01-22T03:01:47.366Z,10.30
2023-01-22T03:06:56.810Z,10.70
2023-01-22T03:12:05.712Z,10.30
2023-01-22T03:17:26.466Z,9.90
2023-01-22T03:22:34.540Z,10.07
2023-01-22T03:27:59.855Z,9.18
2023-01-22T03:33:06.812Z,10.25
2023-01-22T03:38:14.838Z,9.75
2023-01-22T03:43:20.416Z,10.98
2023-01-22T03:48:26.010Z,10.33
2023-01-22T03:53:33.972Z,10.00
2023-01-22T03:58:39.305Z,9.02
2023-01-22T04:03:45.877Z,9.25
2023-01-22T04:08:55.408Z,8.38
2023-01-22T04:14:06.576Z,8.47
2023-01-22T04:19:14.747Z,9.50
2023-01-22T04:24:31.256Z,9.23
2023-01-22T04:29:38.245Z,8.35
2023-01-22T04:34:47.515Z,9.75
2023-01-22T04:40:14.739Z,9.20
2023-01-22T04:45:22.234Z,8.73
2023-01-22T04:50:29.346Z,7.97
2023-01-22T04:55:38.149Z,8.75
2023-01-22T05:00:46.618Z,10.35
2023-01-22T05:05:52.105Z,7.43
2023-01-22T05:11:03.330Z,8.80
2023-01-22T05:16:17.287Z,8.10
2023-01-22T05:21:23.258Z,8.10
2023-01-22T05:26:31.390Z,8.95
2023-01-22T05:31:42.116Z,8.00
2023-01-22T05:37:01.940Z,8.25
2023-01-22T05:42:16.107Z,9.13
2023-01-22T05:47:23.952Z,7.82
2023-01-22T05:52:50.172Z,8.02
2023-01-22T05:57:58.915Z,8.30
2023-01-22T06:03:04.544Z,9.38
2023-01-22T06:08:20.838Z,8.75
2023-01-22T06:13:33.008Z,8.65
2023-01-22T06:18:46.098Z,9.60
2023-01-22T06:23:55.196Z,8.40
2023-01-22T06:29:03.323Z,8.45
2023-01-22T06:34:08.762Z,9.18
2023-01-22T06:39:14.409Z,9.20
2023-01-22T06:44:26.919Z,8.80
2023-01-22T06:49:32.352Z,9.33
2023-01-22T06:54:37.644Z,8.32
2023-01-22T06:59:45.699Z,9.63
2023-01-22T07:04:51.401Z,7.95
2023-01-22T07:09:56.786Z,8.77
2023-01-22T07:15:06.893Z,7.83
2023-01-22T07:20:13.963Z,7.97
2023-01-22T07:25:19.483Z,8.38
2023-01-22T07:30:27.447Z,8.10
2023-01-22T07:35:33.029Z,7.38
2023-01-22T07:40:38.561Z,7.40
2023-01-22T07:45:46.467Z,8.75
2023-01-22T07:50:51.701Z,7.38
2023-01-22T07:55:57.061Z,7.18
2023-01-22T08:01:07.991Z,7.00
2023-01-22T08:06:14.402Z,7.37
2023-01-22T08:11:19.895Z,6.75
2023-01-22T08:16:27.983Z,7.65
2023-01-22T08:21:33.451Z,7.93
2023-01-22T08:26:39.321Z,8.20
2023-01-22T08:31:47.309Z,7.97
2023-01-22T08:36:52.665Z,8.70
2023-01-22T08:41:58.922Z,9.05
2023-01-22T08:47:07.418Z,8.07
2023-01-22T08:52:12.909Z,8.25
2023-01-22T08:57:18.235Z,8.13
2023-01-22T09:02:28.128Z,9.57
2023-01-22T09:07:33.515Z,5.32
2023-01-22T09:12:39.011Z,6.82
2023-01-22T09:17:46.870Z,7.50
2023-01-22T09:22:52.390Z,7.50
2023-01-22T09:28:00.876Z,8.55
2023-01-22T09:33:08.849Z,8.07
2023-01-22T09:38:15.944Z,8.93
2023-01-22T09:43:33.935Z,8.70
2023-01-22T09:48:47.043Z,8.70
2023-01-22T09:53:58.073Z,9.13
2023-01-22T09:59:06.340Z,7.60
2023-01-22T10:04:24.854Z,9.00
2023-01-22T10:09:33.035Z,8.25
2023-01-22T10:14:40.893Z,7.87
2023-01-22T10:19:52.484Z,8.75
2023-01-22T10:24:58.553Z,9.07
2023-01-22T10:30:07.238Z,8.30
2023-01-22T10:35:20.917Z,8.85
2023-01-22T10:40:30.927Z,8.63
2023-01-22T10:45:36.239Z,8.77
2023-01-22T10:50:45.319Z,8.55
2023-01-22T10:55:58.889Z,9.38
2023-01-22T11:01:06.788Z,9.88
2023-01-22T11:06:20.954Z,8.83
2023-01-22T11:11:34.558Z,8.95
2023-01-22T11:16:43.024Z,8.23
2023-01-22T11:21:54.101Z,9.05
2023-01-22T11:27:12.915Z,8.90
2023-01-22T11:32:37.219Z,9.87
2023-01-22T11:37:57.877Z,9.82
2023-01-22T11:43:18.893Z,9.57
2023-01-22T11:48:41.810Z,9.10
2023-01-22T11:54:01.692Z,8.90
2023-01-22T11:59:14.158Z,9.20
2023-01-22T12:04:32.903Z,9.55
2023-01-22T12:09:47.771Z,9.07
2023-01-22T12:15:04.417Z,9.48
2023-01-22T12:20:28.337Z,9.82
2023-01-22T12:25:43.367Z,10.67
2023-01-22T12:30:55.203Z,10.23
2023-01-22T12:36:05.587Z,9.55
2023-01-22T12:41:35.781Z,8.18
2023-01-22T12:46:53.393Z,9.55
2023-01-22T12:51:59.961Z,7.83
2023-01-22T12:57:27.251Z,8.38
2023-01-22T13:02:40.375Z,8.35
2023-01-22T13:07:45.955Z,10.13
2023-01-22T13:12:55.948Z,7.78
2023-01-22T13:18:08.362Z,8.10
2023-01-22T13:23:16.582Z,6.80
2023-01-22T13:28:25.899Z,7.30
2023-01-22T13:33:32.302Z,8.07
2023-01-22T13:38:38.617Z,7.72
2023-01-22T13:43:46.853Z,10.03
2023-01-22T13:49:02.062Z,8.00
2023-01-22T13:54:08.817Z,8.00
2023-01-22T13:59:24.390Z,8.75
2023-01-22T14:04:37.137Z,9.25
2023-01-22T14:09:43.368Z,8.47
2023-01-22T14:14:51.988Z,9.93
2023-01-22T14:19:58.086Z,8.88
2023-01-22T14:25:03.676Z,8.55
2023-01-22T14:30:14.831Z,9.18
2023-01-22T14:35:22.451Z,9.53
2023-01-22T14:40:30.328Z,9.38
2023-01-22T14:45:38.292Z,8.57
2023-01-22T14:50:44.288Z,8.88
2023-01-22T14:55:49.834Z,8.55
2023-01-22T15:00:57.726Z,8.80
2023-01-22T15:06:03.042Z,9.32
2023-01-22T15:11:09.205Z,8.82
2023-01-22T15:16:17.028Z,8.70
2023-01-22T15:21:22.326Z,8.70
2023-01-22T15:26:33.422Z,8.97
2023-01-22T15:31:42.125Z,9.50
2023-01-22T15:36:47.484Z,9.15
2023-01-22T15:41:52.750Z,9.52
2023-01-22T15:47:01.614Z,10.82
2023-01-22T15:52:07.355Z,9.57
2023-01-22T15:57:12.906Z,9.70
2023-01-22T16:02:20.903Z,10.23
2023-01-22T16:07:26.272Z,9.43
2023-01-22T16:12:31.610Z,10.55
2023-01-22T16:17:39.502Z,11.97
2023-01-22T16:22:46.094Z,11.32
2023-01-22T16:27:51.474Z,10.45
2023-01-22T16:32:59.406Z,10.27
2023-01-22T16:38:04.931Z,9.77
2023-01-22T16:43:10.411Z,9.43
2023-01-22T16:48:18.343Z,9.43
2023-01-22T16:53:26.414Z,10.50
2023-01-22T16:58:33.191Z,11.40
2023-01-22T17:03:41.143Z,10.60
2023-01-22T17:08:46.602Z,10.67
2023-01-22T17:13:52.103Z,9.93
2023-01-22T17:19:00.572Z,9.90
2023-01-22T17:24:06.607Z,10.70
2023-01-22T17:29:13.784Z,13.95
2023-01-22T17:34:24.323Z,10.80
2023-01-22T17:39:29.906Z,10.52
2023-01-22T17:44:36.568Z,10.15
2023-01-22T17:49:44.391Z,11.43
2023-01-22T17:54:49.705Z,12.15
2023-01-22T17:59:55.050Z,10.93
2023-01-22T18:05:04.255Z,12.15
2023-01-22T18:10:09.997Z,11.32
2023-01-22T18:15:15.336Z,10.48
2023-01-22T18:20:23.799Z,11.63
2023-01-22T18:25:31.911Z,11.33
2023-01-22T18:30:37.836Z,12.18
2023-01-22T18:35:47.182Z,12.82
2023-01-22T18:40:52.707Z,11.27
2023-01-22T18:45:57.984Z,11.93
2023-01-22T18:51:06.610Z,12.10
2023-01-22T18:56:13.875Z,11.85
2023-01-22T19:01:22.378Z,12.57
2023-01-22T19:06:36.644Z,14.65
2023-01-22T19:11:43.624Z,12.02
2023-01-22T19:16:52.656Z,12.77
2023-01-22T19:22:04.086Z,12.23
2023-01-22T19:27:09.378Z,12.60
2023-01-22T19:32:16.609Z,13.63
2023-01-22T19:37:25.205Z,14.82
2023-01-22T19:42:30.567Z,14.23
2023-01-22T19:47:35.981Z,15.43
2023-01-22T19:52:43.873Z,13.77
2023-01-22T19:57:49.235Z,11.00
2023-01-22T20:02:54.575Z,11.52
2023-01-22T20:08:02.571Z,11.90
2023-01-22T20:13:08.083Z,12.60
2023-01-22T20:18:13.395Z,12.15
2023-01-22T20:23:24.707Z,12.27
2023-01-22T20:28:29.999Z,13.05
2023-01-22T20:33:35.667Z,13.10
2023-01-22T20:38:45.789Z,12.65
2023-01-22T20:43:51.369Z,10.82
2023-01-22T20:49:00.055Z,13.10
2023-01-22T20:54:08.877Z,12.45
2023-01-22T20:59:17.329Z,14.70
2023-01-22T21:04:23.500Z,12.95
2023-01-22T21:09:32.710Z,14.45
2023-01-22T21:14:37.974Z,13.30
2023-01-22T21:19:44.385Z,13.10
2023-01-22T21:24:52.431Z,11.67
2023-01-22T21:29:57.984Z,12.20
2023-01-22T21:35:04.543Z,10.98
2023-01-22T21:40:14.954Z,12.47
2023-01-22T21:45:32.707Z,11.63
2023-01-22T21:50:41.983Z,10.70
2023-01-22T21:55:55.418Z,10.90
2023-01-22T22:01:06.842Z,11.38
2023-01-22T22:06:13.525Z,10.57
2023-01-22T22:11:21.443Z,10.57
2023-01-22T22:16:27.377Z,9.23
2023-01-22T22:21:34.877Z,10.38
2023-01-22T22:26:43.337Z,9.52
2023-01-22T22:31:49.025Z,9.97
2023-01-22T22:36:54.282Z,8.82
2023-01-22T22:42:02.158Z,8.87
2023-01-22T22:47:07.899Z,9.05
2023-01-22T22:52:13.380Z,8.65
2023-01-22T22:57:21.190Z,8.97
2023-01-22T23:02:26.604Z,9.38
2023-01-22T23:07:31.970Z,9.77
2023-01-22T23:12:39.793Z,9.60
2023-01-22T23:17:45.044Z,8.65
2023-01-22T23:22:51.178Z,8.50
2023-01-22T23:27:59.027Z,9.55
2023-01-22T23:33:04.603Z,9.90
2023-01-22T23:38:09.880Z,9.70
2023-01-22T23:43:17.792Z,9.23
2023-01-22T23:48:23.650Z,8.83
2023-01-22T23:53:29.077Z,8.85
2023-01-22T23:58:37.908Z,7.90
